Euro IV — IQNH — position and weather

sailwx.info

Track history (hours):
 
Tides and Currents Weather Stations Pressure Air Temp Water Temp Dewpoint Dewpoint Depression Visibility Wind Speed Wind Dir Waves Ship Positions

Euro IV

Last reported at 2015-Jul-06 17:07 UTC. Time now 2015-Jul-07 00:18 UTC.
Position N 44°06' E 009°50'.

Length 25 m; draft 1.3 m.

Type: Passenger vessel. MMSI: 247131500.

Date/timePositionNaut miles runAvg speedWind from/ knotsBaromVisibWave heightAir tempDewpointWater temp
2015-Jul-06 17:07N 44°06' E 009°50'3 6.1
2015-Jul-06 16:34N 44°04' E 009°46'6 6.3
2015-Jul-06 15:33N 44°09' E 009°39'5 4.5
2015-Jul-06 14:32N 44°06' E 009°44'8 7.6
2015-Jul-06 13:33N 44°04' E 009°54'0 0.1
2015-Jul-06 12:33N 44°04' E 009°55'0 0.0
2015-Jul-06 11:33N 44°04' E 009°55'3 3.4
2015-Jul-06 10:33N 44°03' E 009°50'3 3.1
2015-Jul-06 09:33N 44°06' E 009°50'0 0.0
2015-Jul-06 08:33N 44°06' E 009°50'0 0.5
2015-Jul-06 07:33N 44°06' E 009°50'0 0.4
2015-Jul-06 06:33N 44°06' E 009°50'1 0.1
2015-Jul-05 15:34N 44°06' E 009°50'2 2.5
2015-Jul-05 14:34N 44°03' E 009°50'3 3.4
2015-Jul-05 13:33N 44°04' E 009°55'0 0.1
2015-Jul-05 12:34N 44°04' E 009°54'0 0.1
2015-Jul-05 11:33N 44°04' E 009°55'3 3.4
2015-Jul-05 10:33N 44°03' E 009°50'0 0.4
2015-Jul-05 09:33N 44°03' E 009°51'2 2.1
2015-Jul-05 08:33N 44°05' E 009°50'1 1.3
2015-Jul-05 07:33N 44°04' E 009°51'2 2.2
2015-Jul-05 06:33N 44°06' E 009°50'0 0.0
2015-Jul-04 22:10N 44°06' E 009°50'4 6.6
2015-Jul-04 21:34N 44°04' E 009°55'0 0.0
2015-Jul-04 20:34N 44°04' E 009°55'0 0.0
2015-Jul-04 19:34N 44°05' E 009°55'0 0.0
2015-Jul-04 18:34N 44°05' E 009°55'0 0.0
2015-Jul-04 17:33N 44°05' E 009°55'4 4.0
2015-Jul-04 16:34N 44°06' E 009°50'3 2.8
2015-Jul-04 15:34N 44°04' E 009°51'1 0.9
2015-Jul-04 14:34N 44°03' E 009°50'6 5.7
2015-Jul-04 13:32N 44°06' E 009°44'1 1.1
2015-Jul-04 12:33N 44°05' E 009°43'1 0.8
2015-Jul-04 11:27N 44°06' E 009°43'4 4.0
2015-Jul-04 10:33N 44°09' E 009°39'9 8.7
2015-Jul-04 09:33N 44°03' E 009°49'3 3.3
2015-Jul-04 08:34N 44°06' E 009°50'0 0.2
2015-Jul-04 07:34N 44°06' E 009°50'0 0.0
2015-Jul-03 16:28N 44°06' E 009°50'4 4.2
2015-Jul-03 15:28N 44°06' E 009°44'1011.3
2015-Jul-03 14:33N 44°12' E 009°32'1513.4
2015-Jul-03 13:24N 44°19' E 009°13'1 1.2
2015-Jul-03 12:30N 44°18' E 009°13'0 0.0
2015-Jul-03 11:24N 44°18' E 009°13'0 0.0
2015-Jul-03 10:31N 44°18' E 009°13'5 5.0
2015-Jul-03 09:33N 44°16' E 009°19'1512.9
2015-Jul-03 08:24N 44°09' E 009°37'6 6.6
2015-Jul-03 07:33N 44°06' E 009°43'4 4.3
2015-Jul-03 06:33N 44°06' E 009°50'0 0.0
2015-Jul-02 16:22N 44°06' E 009°50'0 0.0
2015-Jul-02 15:33N 44°06' E 009°50'4 4.0
2015-Jul-02 14:33N 44°02' E 009°51'1 1.2
2015-Jul-02 13:33N 44°03' E 009°51'1 0.9
2015-Jul-02 12:33N 44°03' E 009°51'4 3.8
2015-Jul-02 11:33N 44°06' E 009°50'0 0.0
2015-Jul-02 10:33N 44°06' E 009°50'0 0.1
2015-Jul-02 09:33N 44°06' E 009°50'0 0.1
2015-Jul-02 08:33N 44°06' E 009°50'0 0.0
2015-Jul-02 07:33N 44°06' E 009°50'0 0.0
2015-Jul-02 06:33N 44°06' E 009°50'3 0.2
2015-Jul-01 17:33N 44°03' E 009°48'9 8.6
2015-Jul-01 16:33N 44°09' E 009°39'8 8.0
2015-Jul-01 15:33N 44°04' E 009°48'2 1.8
2015-Jul-01 14:33N 44°03' E 009°50'3 2.8
2015-Jul-01 13:33N 44°04' E 009°46'7 6.9
2015-Jul-01 12:32N 44°09' E 009°39'0 0.0
2015-Jul-01 11:27N 44°09' E 009°39'4 4.9
2015-Jul-01 10:33N 44°06' E 009°44'8 7.7
2015-Jul-01 09:33N 44°04' E 009°54'2 1.7
2015-Jul-01 08:34N 44°05' E 009°52'2 2.2
2015-Jul-01 07:33N 44°06' E 009°49'0 0.0
2015-Jun-30 15:32N 44°06' E 009°49'3 3.2
2015-Jun-30 14:33N 44°03' E 009°50'0 0.3
2015-Jun-30 13:33N 44°03' E 009°51'1 0.8
2015-Jun-30 12:34N 44°04' E 009°51'1 1.0
2015-Jun-30 11:33N 44°03' E 009°50'0 0.0
2015-Jun-30 10:33N 44°03' E 009°50'0 0.1
2015-Jun-30 09:33N 44°03' E 009°50'0 0.4
2015-Jun-30 08:33N 44°03' E 009°50'4 3.7
2015-Jun-30 07:33N 44°04' E 009°54'4 0.3
2015-Jun-29 17:11N 44°06' E 009°50'4 6.1
2015-Jun-29 16:33N 44°05' E 009°45'5 5.4
2015-Jun-29 15:33N 44°09' E 009°39'4 4.2
2015-Jun-29 14:29N 44°06' E 009°44'8 8.3
2015-Jun-29 13:34N 44°04' E 009°55'0 0.2
2015-Jun-29 12:33N 44°04' E 009°54'0 0.2
2015-Jun-29 11:33N 44°04' E 009°55'3 3.3
2015-Jun-29 10:33N 44°03' E 009°50'3 3.1
2015-Jun-29 09:33N 44°06' E 009°50'0 0.0
2015-Jun-29 08:33N 44°06' E 009°50'0 0.0
2015-Jun-28 17:33N 44°06' E 009°50'4 3.7
2015-Jun-28 16:29N 44°06' E 009°44'4 4.8
2015-Jun-28 15:33N 44°09' E 009°39'4 4.3
2015-Jun-28 14:30N 44°06' E 009°44'5 5.4
2015-Jun-28 13:33N 44°03' E 009°50'0 0.0
2015-Jun-28 12:33N 44°03' E 009°50'0 0.0
2015-Jun-28 11:33N 44°03' E 009°50'2 2.1
2015-Jun-28 10:34N 44°04' E 009°47'8 7.6
2015-Jun-28 09:33N 44°09' E 009°39'1 1.0
2015-Jun-28 08:25N 44°08' E 009°40'0 0.2
2015-Jun-28 07:26N 44°08' E 009°41'9 9.7
2015-Jun-28 06:34N 44°04' E 009°51'3 0.2
2015-Jun-27 16:21N 44°06' E 009°50'0 0.1
2015-Jun-27 15:33N 44°06' E 009°50'4 3.9
2015-Jun-27 14:33N 44°02' E 009°51'2 2.0
2015-Jun-27 13:33N 44°04' E 009°51'2 2.0
2015-Jun-27 12:33N 44°02' E 009°51'4 4.0
2015-Jun-27 11:33N 44°06' E 009°50'0 0.0
2015-Jun-27 10:34N 44°06' E 009°50'0 0.0
2015-Jun-27 09:33N 44°06' E 009°50'0 0.0
2015-Jun-27 08:33N 44°06' E 009°50'0 0.0
2015-Jun-27 07:34N 44°06' E 009°50'0 0.0
2015-Jun-27 06:33N 44°06' E 009°50'  
Track history (hours):
 
Tides and Currents Weather Stations Pressure Air Temp Water Temp Dewpoint Dewpoint Depression Visibility Wind Speed Wind Dir Waves Ship Positions

Euro IV

Last reported at 2015-Jul-06 17:07 UTC. Time now 2015-Jul-07 00:18 UTC.
Position N 44°06' E 009°50'.

Length 25 m; draft 1.3 m.

Type: Passenger vessel. MMSI: 247131500.

Date/timePositionNaut miles runAvg speedWind from/ knotsBaromVisibWave heightAir tempDewpointWater temp
2015-Jul-06 17:07N 44°06' E 009°50'3 6.1
2015-Jul-06 16:34N 44°04' E 009°46'6 6.3
2015-Jul-06 15:33N 44°09' E 009°39'5 4.5
2015-Jul-06 14:32N 44°06' E 009°44'8 7.6
2015-Jul-06 13:33N 44°04' E 009°54'0 0.1
2015-Jul-06 12:33N 44°04' E 009°55'0 0.0
2015-Jul-06 11:33N 44°04' E 009°55'3 3.4
2015-Jul-06 10:33N 44°03' E 009°50'3 3.1
2015-Jul-06 09:33N 44°06' E 009°50'0 0.0
2015-Jul-06 08:33N 44°06' E 009°50'0 0.5
2015-Jul-06 07:33N 44°06' E 009°50'0 0.4
2015-Jul-06 06:33N 44°06' E 009°50'1 0.1
2015-Jul-05 15:34N 44°06' E 009°50'2 2.5
2015-Jul-05 14:34N 44°03' E 009°50'3 3.4
2015-Jul-05 13:33N 44°04' E 009°55'0 0.1
2015-Jul-05 12:34N 44°04' E 009°54'0 0.1
2015-Jul-05 11:33N 44°04' E 009°55'3 3.4
2015-Jul-05 10:33N 44°03' E 009°50'0 0.4
2015-Jul-05 09:33N 44°03' E 009°51'2 2.1
2015-Jul-05 08:33N 44°05' E 009°50'1 1.3
2015-Jul-05 07:33N 44°04' E 009°51'2 2.2
2015-Jul-05 06:33N 44°06' E 009°50'0 0.0
2015-Jul-04 22:10N 44°06' E 009°50'4 6.6
2015-Jul-04 21:34N 44°04' E 009°55'0 0.0
2015-Jul-04 20:34N 44°04' E 009°55'0 0.0
2015-Jul-04 19:34N 44°05' E 009°55'0 0.0
2015-Jul-04 18:34N 44°05' E 009°55'0 0.0
2015-Jul-04 17:33N 44°05' E 009°55'4 4.0
2015-Jul-04 16:34N 44°06' E 009°50'3 2.8
2015-Jul-04 15:34N 44°04' E 009°51'1 0.9
2015-Jul-04 14:34N 44°03' E 009°50'6 5.7
2015-Jul-04 13:32N 44°06' E 009°44'1 1.1
2015-Jul-04 12:33N 44°05' E 009°43'1 0.8
2015-Jul-04 11:27N 44°06' E 009°43'4 4.0
2015-Jul-04 10:33N 44°09' E 009°39'9 8.7
2015-Jul-04 09:33N 44°03' E 009°49'3 3.3
2015-Jul-04 08:34N 44°06' E 009°50'0 0.2
2015-Jul-04 07:34N 44°06' E 009°50'0 0.0
2015-Jul-03 16:28N 44°06' E 009°50'4 4.2
2015-Jul-03 15:28N 44°06' E 009°44'1011.3
2015-Jul-03 14:33N 44°12' E 009°32'1513.4
2015-Jul-03 13:24N 44°19' E 009°13'1 1.2
2015-Jul-03 12:30N 44°18' E 009°13'0 0.0
2015-Jul-03 11:24N 44°18' E 009°13'0 0.0
2015-Jul-03 10:31N 44°18' E 009°13'5 5.0
2015-Jul-03 09:33N 44°16' E 009°19'1512.9
2015-Jul-03 08:24N 44°09' E 009°37'6 6.6
2015-Jul-03 07:33N 44°06' E 009°43'4 4.3
2015-Jul-03 06:33N 44°06' E 009°50'0 0.0
2015-Jul-02 16:22N 44°06' E 009°50'0 0.0
2015-Jul-02 15:33N 44°06' E 009°50'4 4.0
2015-Jul-02 14:33N 44°02' E 009°51'1 1.2
2015-Jul-02 13:33N 44°03' E 009°51'1 0.9
2015-Jul-02 12:33N 44°03' E 009°51'4 3.8
2015-Jul-02 11:33N 44°06' E 009°50'0 0.0
2015-Jul-02 10:33N 44°06' E 009°50'0 0.1
2015-Jul-02 09:33N 44°06' E 009°50'0 0.1
2015-Jul-02 08:33N 44°06' E 009°50'0 0.0
2015-Jul-02 07:33N 44°06' E 009°50'0 0.0
2015-Jul-02 06:33N 44°06' E 009°50'3 0.2
2015-Jul-01 17:33N 44°03' E 009°48'9 8.6
2015-Jul-01 16:33N 44°09' E 009°39'8 8.0
2015-Jul-01 15:33N 44°04' E 009°48'2 1.8
2015-Jul-01 14:33N 44°03' E 009°50'3 2.8
2015-Jul-01 13:33N 44°04' E 009°46'7 6.9
2015-Jul-01 12:32N 44°09' E 009°39'0 0.0
2015-Jul-01 11:27N 44°09' E 009°39'4 4.9
2015-Jul-01 10:33N 44°06' E 009°44'8 7.7
2015-Jul-01 09:33N 44°04' E 009°54'2 1.7
2015-Jul-01 08:34N 44°05' E 009°52'2 2.2
2015-Jul-01 07:33N 44°06' E 009°49'0 0.0
2015-Jun-30 15:32N 44°06' E 009°49'3 3.2
2015-Jun-30 14:33N 44°03' E 009°50'0 0.3
2015-Jun-30 13:33N 44°03' E 009°51'1 0.8
2015-Jun-30 12:34N 44°04' E 009°51'1 1.0
2015-Jun-30 11:33N 44°03' E 009°50'0 0.0
2015-Jun-30 10:33N 44°03' E 009°50'0 0.1
2015-Jun-30 09:33N 44°03' E 009°50'0 0.4
2015-Jun-30 08:33N 44°03' E 009°50'4 3.7
2015-Jun-30 07:33N 44°04' E 009°54'4 0.3
2015-Jun-29 17:11N 44°06' E 009°50'4 6.1
2015-Jun-29 16:33N 44°05' E 009°45'5 5.4
2015-Jun-29 15:33N 44°09' E 009°39'4 4.2
2015-Jun-29 14:29N 44°06' E 009°44'8 8.3
2015-Jun-29 13:34N 44°04' E 009°55'0 0.2
2015-Jun-29 12:33N 44°04' E 009°54'0 0.2
2015-Jun-29 11:33N 44°04' E 009°55'3 3.3
2015-Jun-29 10:33N 44°03' E 009°50'3 3.1
2015-Jun-29 09:33N 44°06' E 009°50'0 0.0
2015-Jun-29 08:33N 44°06' E 009°50'0 0.0
2015-Jun-28 17:33N 44°06' E 009°50'4 3.7
2015-Jun-28 16:29N 44°06' E 009°44'4 4.8
2015-Jun-28 15:33N 44°09' E 009°39'4 4.3
2015-Jun-28 14:30N 44°06' E 009°44'5 5.4
2015-Jun-28 13:33N 44°03' E 009°50'0 0.0
2015-Jun-28 12:33N 44°03' E 009°50'0 0.0
2015-Jun-28 11:33N 44°03' E 009°50'2 2.1
2015-Jun-28 10:34N 44°04' E 009°47'8 7.6
2015-Jun-28 09:33N 44°09' E 009°39'1 1.0
2015-Jun-28 08:25N 44°08' E 009°40'0 0.2
2015-Jun-28 07:26N 44°08' E 009°41'9 9.7
2015-Jun-28 06:34N 44°04' E 009°51'3 0.2
2015-Jun-27 16:21N 44°06' E 009°50'0 0.1
2015-Jun-27 15:33N 44°06' E 009°50'4 3.9
2015-Jun-27 14:33N 44°02' E 009°51'2 2.0
2015-Jun-27 13:33N 44°04' E 009°51'2 2.0
2015-Jun-27 12:33N 44°02' E 009°51'4 4.0
2015-Jun-27 11:33N 44°06' E 009°50'0 0.0
2015-Jun-27 10:34N 44°06' E 009°50'0 0.0
2015-Jun-27 09:33N 44°06' E 009°50'0 0.0
2015-Jun-27 08:33N 44°06' E 009°50'0 0.0
2015-Jun-27 07:34N 44°06' E 009°50'0 0.0
2015-Jun-27 06:33N 44°06' E 009°50'  

Dump ship's entire track history